sensor_id;sensor_type;location;lat;lon;timestamp;temperature;humidity
13389;DHT22;6764;53.250;10.410;2023-05-07T00:01:26;10.40;99.90
13389;DHT22;6764;53.250;10.410;2023-05-07T00:03:51;10.40;99.90
13389;DHT22;6764;53.250;10.410;2023-05-07T00:06:17;10.50;99.90
13389;DHT22;6764;53.250;10.410;2023-05-07T00:08:42;10.50;99.90
13389;DHT22;6764;53.250;10.410;2023-05-07T00:11:08;10.50;99.90
13389;DHT22;6764;53.250;10.410;2023-05-07T00:13:33;10.50;99.90
13389;DHT22;6764;53.250;10.410;2023-05-07T00:16:02;10.40;99.90
13389;DHT22;6764;53.250;10.410;2023-05-07T00:18:27;10.50;99.90
13389;DHT22;6764;53.250;10.410;2023-05-07T00:20:53;10.40;99.90
13389;DHT22;6764;53.250;10.410;2023-05-07T00:23:19;10.40;99.90
13389;DHT22;6764;53.250;10.410;2023-05-07T00:25:44;10.50;99.90
13389;DHT22;6764;53.250;10.410;2023-05-07T00:28:10;10.60;99.90
13389;DHT22;6764;53.250;10.410;2023-05-07T00:30:36;10.60;99.90
13389;DHT22;6764;53.250;10.410;2023-05-07T00:33:01;10.70;99.90
13389;DHT22;6764;53.250;10.410;2023-05-07T00:35:28;10.80;99.90
13389;DHT22;6764;53.250;10.410;2023-05-07T00:37:54;10.70;99.90
13389;DHT22;6764;53.250;10.410;2023-05-07T00:40:20;10.60;99.90
13389;DHT22;6764;53.250;10.410;2023-05-07T00:42:46;10.60;99.90
13389;DHT22;6764;53.250;10.410;2023-05-07T00:45:13;10.60;99.90
13389;DHT22;6764;53.250;10.410;2023-05-07T00:47:39;10.70;99.90
13389;DHT22;6764;53.250;10.410;2023-05-07T00:50:06;10.80;99.90
13389;DHT22;6764;53.250;10.410;2023-05-07T00:52:32;10.80;99.90
13389;DHT22;6764;53.250;10.410;2023-05-07T00:55:01;10.80;99.90
13389;DHT22;6764;53.250;10.410;2023-05-07T00:57:32;10.80;99.90
13389;DHT22;6764;53.250;10.410;2023-05-07T00:59:57;10.90;99.90
13389;DHT22;6764;53.250;10.410;2023-05-07T01:02:23;10.90;99.90
13389;DHT22;6764;53.250;10.410;2023-05-07T01:04:49;10.90;99.90
13389;DHT22;6764;53.250;10.410;2023-05-07T01:07:14;10.90;99.90
13389;DHT22;6764;53.250;10.410;2023-05-07T01:09:40;10.90;99.90
13389;DHT22;6764;53.250;10.410;2023-05-07T01:12:07;10.80;99.90
13389;DHT22;6764;53.250;10.410;2023-05-07T01:14:33;10.90;99.90
13389;DHT22;6764;53.250;10.410;2023-05-07T01:16:59;10.80;99.90
13389;DHT22;6764;53.250;10.410;2023-05-07T01:19:24;10.70;99.90
13389;DHT22;6764;53.250;10.410;2023-05-07T01:21:51;10.70;99.90
13389;DHT22;6764;53.250;10.410;2023-05-07T01:24:18;10.60;99.90
13389;DHT22;6764;53.250;10.410;2023-05-07T01:26:44;10.70;99.90
13389;DHT22;6764;53.250;10.410;2023-05-07T01:29:10;10.70;99.90
13389;DHT22;6764;53.250;10.410;2023-05-07T01:31:37;10.70;99.90
13389;DHT22;6764;53.250;10.410;2023-05-07T01:34:03;10.70;99.90
13389;DHT22;6764;53.250;10.410;2023-05-07T01:36:31;10.80;99.90
13389;DHT22;6764;53.250;10.410;2023-05-07T01:38:58;10.80;99.90
13389;DHT22;6764;53.250;10.410;2023-05-07T01:41:25;10.70;99.90
13389;DHT22;6764;53.250;10.410;2023-05-07T01:43:52;10.70;99.90
13389;DHT22;6764;53.250;10.410;2023-05-07T01:46:17;10.70;99.90
13389;DHT22;6764;53.250;10.410;2023-05-07T01:48:45;10.80;99.90
13389;DHT22;6764;53.250;10.410;2023-05-07T01:51:11;10.90;99.90
13389;DHT22;6764;53.250;10.410;2023-05-07T01:53:38;10.80;99.90
13389;DHT22;6764;53.250;10.410;2023-05-07T01:56:04;10.70;99.90
13389;DHT22;6764;53.250;10.410;2023-05-07T01:58:30;10.60;99.90
13389;DHT22;6764;53.250;10.410;2023-05-07T02:00:55;10.70;99.90
13389;DHT22;6764;53.250;10.410;2023-05-07T02:03:21;10.70;99.90
13389;DHT22;6764;53.250;10.410;2023-05-07T02:05:47;10.60;99.90
13389;DHT22;6764;53.250;10.410;2023-05-07T02:08:12;10.50;99.90
13389;DHT22;6764;53.250;10.410;2023-05-07T02:10:38;10.60;99.90
13389;DHT22;6764;53.250;10.410;2023-05-07T02:13:03;10.60;99.90
13389;DHT22;6764;53.250;10.410;2023-05-07T02:15:29;10.60;99.90
13389;DHT22;6764;53.250;10.410;2023-05-07T02:18:04;10.50;99.90
13389;DHT22;6764;53.250;10.410;2023-05-07T02:20:31;10.50;99.90
13389;DHT22;6764;53.250;10.410;2023-05-07T02:22:57;10.50;99.90
13389;DHT22;6764;53.250;10.410;2023-05-07T02:25:22;10.50;99.90
13389;DHT22;6764;53.250;10.410;2023-05-07T02:27:48;10.50;99.90
13389;DHT22;6764;53.250;10.410;2023-05-07T02:30:14;10.50;99.90
13389;DHT22;6764;53.250;10.410;2023-05-07T02:32:40;10.40;99.90
13389;DHT22;6764;53.250;10.410;2023-05-07T02:35:06;10.40;99.90
13389;DHT22;6764;53.250;10.410;2023-05-07T02:37:31;10.40;99.90
13389;DHT22;6764;53.250;10.410;2023-05-07T02:39:57;10.40;99.90
13389;DHT22;6764;53.250;10.410;2023-05-07T02:42:22;10.50;99.90
13389;DHT22;6764;53.250;10.410;2023-05-07T02:44:48;10.60;99.90
13389;DHT22;6764;53.250;10.410;2023-05-07T02:47:15;10.50;99.90
13389;DHT22;6764;53.250;10.410;2023-05-07T02:49:41;10.50;99.90
13389;DHT22;6764;53.250;10.410;2023-05-07T02:52:07;10.50;99.90
13389;DHT22;6764;53.250;10.410;2023-05-07T02:54:33;10.60;99.90
13389;DHT22;6764;53.250;10.410;2023-05-07T02:56:58;10.60;99.90
13389;DHT22;6764;53.250;10.410;2023-05-07T02:59:26;10.60;99.90
13389;DHT22;6764;53.250;10.410;2023-05-07T03:01:51;10.60;99.90
13389;DHT22;6764;53.250;10.410;2023-05-07T03:04:17;10.60;99.90
13389;DHT22;6764;53.250;10.410;2023-05-07T03:06:42;10.60;99.90
13389;DHT22;6764;53.250;10.410;2023-05-07T03:09:08;10.60;99.90
13389;DHT22;6764;53.250;10.410;2023-05-07T03:11:34;10.60;99.90
13389;DHT22;6764;53.250;10.410;2023-05-07T03:14:01;10.60;99.90
13389;DHT22;6764;53.250;10.410;2023-05-07T03:16:26;10.50;99.90
13389;DHT22;6764;53.250;10.410;2023-05-07T03:18:52;10.50;99.90
13389;DHT22;6764;53.250;10.410;2023-05-07T03:21:18;10.40;99.90
13389;DHT22;6764;53.250;10.410;2023-05-07T03:23:43;10.50;99.90
13389;DHT22;6764;53.250;10.410;2023-05-07T03:26:09;10.50;99.90
13389;DHT22;6764;53.250;10.410;2023-05-07T03:28:36;10.50;99.90
13389;DHT22;6764;53.250;10.410;2023-05-07T03:31:02;10.50;99.90
13389;DHT22;6764;53.250;10.410;2023-05-07T03:33:27;10.50;99.90
13389;DHT22;6764;53.250;10.410;2023-05-07T03:35:53;10.50;99.90
13389;DHT22;6764;53.250;10.410;2023-05-07T03:38:18;10.50;99.90
13389;DHT22;6764;53.250;10.410;2023-05-07T03:40:44;10.60;99.90
13389;DHT22;6764;53.250;10.410;2023-05-07T03:43:10;10.50;99.90
13389;DHT22;6764;53.250;10.410;2023-05-07T03:45:35;10.60;99.90
13389;DHT22;6764;53.250;10.410;2023-05-07T03:48:01;10.60;99.90
13389;DHT22;6764;53.250;10.410;2023-05-07T03:50:27;10.60;99.90
13389;DHT22;6764;53.250;10.410;2023-05-07T03:52:52;10.60;99.90
13389;DHT22;6764;53.250;10.410;2023-05-07T03:55:18;10.60;99.90
13389;DHT22;6764;53.250;10.410;2023-05-07T03:57:44;10.50;99.90
13389;DHT22;6764;53.250;10.410;2023-05-07T04:00:10;10.50;99.90
13389;DHT22;6764;53.250;10.410;2023-05-07T04:02:35;10.60;99.90
13389;DHT22;6764;53.250;10.410;2023-05-07T04:05:01;10.60;99.90
13389;DHT22;6764;53.250;10.410;2023-05-07T04:07:27;10.60;99.90
13389;DHT22;6764;53.250;10.410;2023-05-07T04:09:52;10.50;99.90
13389;DHT22;6764;53.250;10.410;2023-05-07T04:12:18;10.60;99.90
13389;DHT22;6764;53.250;10.410;2023-05-07T04:14:43;10.50;99.90
13389;DHT22;6764;53.250;10.410;2023-05-07T04:17:10;10.50;99.90
13389;DHT22;6764;53.250;10.410;2023-05-07T04:19:36;10.60;99.90
13389;DHT22;6764;53.250;10.410;2023-05-07T04:22:01;10.70;99.90
13389;DHT22;6764;53.250;10.410;2023-05-07T04:24:27;10.60;99.90
13389;DHT22;6764;53.250;10.410;2023-05-07T04:26:52;10.60;99.90
13389;DHT22;6764;53.250;10.410;2023-05-07T04:29:18;10.70;99.90
13389;DHT22;6764;53.250;10.410;2023-05-07T04:31:44;10.70;99.90
13389;DHT22;6764;53.250;10.410;2023-05-07T04:34:12;10.60;99.90
13389;DHT22;6764;53.250;10.410;2023-05-07T04:36:39;10.60;99.90
13389;DHT22;6764;53.250;10.410;2023-05-07T04:39:05;10.60;99.90
13389;DHT22;6764;53.250;10.410;2023-05-07T04:41:32;10.60;99.90
13389;DHT22;6764;53.250;10.410;2023-05-07T04:43:57;10.60;99.90
13389;DHT22;6764;53.250;10.410;2023-05-07T04:46:24;10.50;99.90
13389;DHT22;6764;53.250;10.410;2023-05-07T04:48:50;10.50;99.90
13389;DHT22;6764;53.250;10.410;2023-05-07T04:51:15;10.60;99.90
13389;DHT22;6764;53.250;10.410;2023-05-07T04:53:41;10.60;99.90
13389;DHT22;6764;53.250;10.410;2023-05-07T04:56:08;10.60;99.90
13389;DHT22;6764;53.250;10.410;2023-05-07T04:58:34;10.60;99.90
13389;DHT22;6764;53.250;10.410;2023-05-07T05:00:59;10.60;99.90
13389;DHT22;6764;53.250;10.410;2023-05-07T05:03:25;10.60;99.90
13389;DHT22;6764;53.250;10.410;2023-05-07T05:05:51;10.70;99.90
13389;DHT22;6764;53.250;10.410;2023-05-07T05:08:18;10.70;99.90
13389;DHT22;6764;53.250;10.410;2023-05-07T05:10:44;10.80;99.90
13389;DHT22;6764;53.250;10.410;2023-05-07T05:13:10;10.80;99.90
13389;DHT22;6764;53.250;10.410;2023-05-07T05:15:38;10.80;99.90
13389;DHT22;6764;53.250;10.410;2023-05-07T05:18:04;10.70;99.90
13389;DHT22;6764;53.250;10.410;2023-05-07T05:20:29;10.70;99.90
13389;DHT22;6764;53.250;10.410;2023-05-07T05:22:55;10.70;99.90
13389;DHT22;6764;53.250;10.410;2023-05-07T05:25:21;10.70;99.90
13389;DHT22;6764;53.250;10.410;2023-05-07T05:27:46;10.70;99.90
13389;DHT22;6764;53.250;10.410;2023-05-07T05:30:12;10.70;99.90
13389;DHT22;6764;53.250;10.410;2023-05-07T05:32:38;10.80;99.90
13389;DHT22;6764;53.250;10.410;2023-05-07T05:35:04;10.90;99.90
13389;DHT22;6764;53.250;10.410;2023-05-07T05:37:29;10.90;99.90
13389;DHT22;6764;53.250;10.410;2023-05-07T05:39:56;10.90;99.90
13389;DHT22;6764;53.250;10.410;2023-05-07T05:42:22;10.80;99.90
13389;DHT22;6764;53.250;10.410;2023-05-07T05:44:50;10.90;99.90
13389;DHT22;6764;53.250;10.410;2023-05-07T05:47:16;11.00;99.90
13389;DHT22;6764;53.250;10.410;2023-05-07T05:49:41;11.00;99.90
13389;DHT22;6764;53.250;10.410;2023-05-07T05:52:08;11.00;99.90
13389;DHT22;6764;53.250;10.410;2023-05-07T05:54:34;11.00;99.90
13389;DHT22;6764;53.250;10.410;2023-05-07T05:57:00;11.00;99.90
13389;DHT22;6764;53.250;10.410;2023-05-07T05:59:25;11.10;99.90
13389;DHT22;6764;53.250;10.410;2023-05-07T06:01:51;11.00;99.90
13389;DHT22;6764;53.250;10.410;2023-05-07T06:04:19;11.00;99.90
13389;DHT22;6764;53.250;10.410;2023-05-07T06:06:44;11.00;99.90
13389;DHT22;6764;53.250;10.410;2023-05-07T06:09:10;11.10;99.90
13389;DHT22;6764;53.250;10.410;2023-05-07T06:11:35;11.00;99.90
13389;DHT22;6764;53.250;10.410;2023-05-07T06:14:01;11.00;99.90
13389;DHT22;6764;53.250;10.410;2023-05-07T06:16:27;11.20;99.90
13389;DHT22;6764;53.250;10.410;2023-05-07T06:18:52;11.20;99.90
13389;DHT22;6764;53.250;10.410;2023-05-07T06:21:18;11.20;99.90
13389;DHT22;6764;53.250;10.410;2023-05-07T06:23:43;11.10;99.90
13389;DHT22;6764;53.250;10.410;2023-05-07T06:26:09;11.10;99.90
13389;DHT22;6764;53.250;10.410;2023-05-07T06:28:35;11.20;99.90
13389;DHT22;6764;53.250;10.410;2023-05-07T06:31:17;11.20;99.90
13389;DHT22;6764;53.250;10.410;2023-05-07T06:33:45;11.20;99.90
13389;DHT22;6764;53.250;10.410;2023-05-07T06:36:11;11.30;99.90
13389;DHT22;6764;53.250;10.410;2023-05-07T06:38:37;11.30;99.90
13389;DHT22;6764;53.250;10.410;2023-05-07T06:41:06;11.40;99.90
13389;DHT22;6764;53.250;10.410;2023-05-07T06:43:32;11.40;99.90
13389;DHT22;6764;53.250;10.410;2023-05-07T06:45:57;11.40;99.90
13389;DHT22;6764;53.250;10.410;2023-05-07T06:48:23;11.40;99.90
13389;DHT22;6764;53.250;10.410;2023-05-07T06:50:48;11.50;99.90
13389;DHT22;6764;53.250;10.410;2023-05-07T06:53:14;11.40;99.90
13389;DHT22;6764;53.250;10.410;2023-05-07T06:55:39;11.40;99.90
13389;DHT22;6764;53.250;10.410;2023-05-07T06:58:06;11.40;99.90
13389;DHT22;6764;53.250;10.410;2023-05-07T07:00:32;11.40;99.90
13389;DHT22;6764;53.250;10.410;2023-05-07T07:02:58;11.30;99.90
13389;DHT22;6764;53.250;10.410;2023-05-07T07:05:24;11.40;99.90
13389;DHT22;6764;53.250;10.410;2023-05-07T07:07:50;11.40;99.90
13389;DHT22;6764;53.250;10.410;2023-05-07T07:10:23;11.50;99.90
13389;DHT22;6764;53.250;10.410;2023-05-07T07:12:49;11.40;99.90
13389;DHT22;6764;53.250;10.410;2023-05-07T07:15:15;11.50;99.90
13389;DHT22;6764;53.250;10.410;2023-05-07T07:17:41;11.50;99.90
13389;DHT22;6764;53.250;10.410;2023-05-07T07:20:07;11.50;99.90
13389;DHT22;6764;53.250;10.410;2023-05-07T07:22:33;11.50;99.90
13389;DHT22;6764;53.250;10.410;2023-05-07T07:24:59;11.50;99.90
13389;DHT22;6764;53.250;10.410;2023-05-07T07:27:24;11.70;99.90
13389;DHT22;6764;53.250;10.410;2023-05-07T07:29:50;11.80;99.90
13389;DHT22;6764;53.250;10.410;2023-05-07T07:32:16;11.90;99.90
13389;DHT22;6764;53.250;10.410;2023-05-07T07:34:41;11.90;99.90
13389;DHT22;6764;53.250;10.410;2023-05-07T07:37:07;11.90;99.90
13389;DHT22;6764;53.250;10.410;2023-05-07T07:39:33;12.00;99.90
13389;DHT22;6764;53.250;10.410;2023-05-07T07:41:59;11.90;99.90
13389;DHT22;6764;53.250;10.410;2023-05-07T07:44:25;12.00;99.90
13389;DHT22;6764;53.250;10.410;2023-05-07T07:46:50;12.00;99.90
13389;DHT22;6764;53.250;10.410;2023-05-07T07:49:16;12.00;99.90
13389;DHT22;6764;53.250;10.410;2023-05-07T07:51:42;12.00;99.90
13389;DHT22;6764;53.250;10.410;2023-05-07T07:54:08;12.10;99.90
13389;DHT22;6764;53.250;10.410;2023-05-07T07:56:33;12.20;99.90
13389;DHT22;6764;53.250;10.410;2023-05-07T07:58:59;12.30;99.90
13389;DHT22;6764;53.250;10.410;2023-05-07T08:01:25;12.20;99.90
13389;DHT22;6764;53.250;10.410;2023-05-07T08:03:52;12.20;99.90
13389;DHT22;6764;53.250;10.410;2023-05-07T08:06:18;12.10;99.90
13389;DHT22;6764;53.250;10.410;2023-05-07T08:08:44;12.20;99.90
13389;DHT22;6764;53.250;10.410;2023-05-07T08:11:10;12.10;99.90
13389;DHT22;6764;53.250;10.410;2023-05-07T08:13:36;12.20;99.90
13389;DHT22;6764;53.250;10.410;2023-05-07T08:16:03;12.20;99.90
13389;DHT22;6764;53.250;10.410;2023-05-07T08:18:29;12.20;99.90
13389;DHT22;6764;53.250;10.410;2023-05-07T08:20:55;12.30;99.90
13389;DHT22;6764;53.250;10.410;2023-05-07T08:23:21;12.30;99.90
13389;DHT22;6764;53.250;10.410;2023-05-07T08:25:47;12.30;99.90
13389;DHT22;6764;53.250;10.410;2023-05-07T08:28:12;12.40;99.90
13389;DHT22;6764;53.250;10.410;2023-05-07T08:30:38;12.30;99.90
13389;DHT22;6764;53.250;10.410;2023-05-07T08:33:03;12.40;99.90
13389;DHT22;6764;53.250;10.410;2023-05-07T08:35:29;12.30;99.90
13389;DHT22;6764;53.250;10.410;2023-05-07T08:37:55;12.30;99.90
13389;DHT22;6764;53.250;10.410;2023-05-07T08:40:25;12.30;99.90
13389;DHT22;6764;53.250;10.410;2023-05-07T08:42:52;12.50;99.90
13389;DHT22;6764;53.250;10.410;2023-05-07T08:45:19;12.50;99.90
13389;DHT22;6764;53.250;10.410;2023-05-07T08:47:52;12.50;99.90
13389;DHT22;6764;53.250;10.410;2023-05-07T08:50:20;12.40;99.90
13389;DHT22;6764;53.250;10.410;2023-05-07T08:52:47;12.50;99.90
13389;DHT22;6764;53.250;10.410;2023-05-07T08:55:13;12.40;99.90
13389;DHT22;6764;53.250;10.410;2023-05-07T08:57:38;12.40;99.90
13389;DHT22;6764;53.250;10.410;2023-05-07T09:00:05;12.50;99.90
13389;DHT22;6764;53.250;10.410;2023-05-07T09:02:34;12.50;99.90
13389;DHT22;6764;53.250;10.410;2023-05-07T09:05:00;12.70;99.90
13389;DHT22;6764;53.250;10.410;2023-05-07T09:07:26;12.50;99.90
13389;DHT22;6764;53.250;10.410;2023-05-07T09:09:52;12.60;99.90
13389;DHT22;6764;53.250;10.410;2023-05-07T09:12:20;12.70;99.90
13389;DHT22;6764;53.250;10.410;2023-05-07T09:14:46;12.70;99.90
13389;DHT22;6764;53.250;10.410;2023-05-07T09:17:12;12.50;99.90
13389;DHT22;6764;53.250;10.410;2023-05-07T09:19:38;12.60;99.90
13389;DHT22;6764;53.250;10.410;2023-05-07T09:22:05;12.80;99.90
13389;DHT22;6764;53.250;10.410;2023-05-07T09:24:32;13.00;99.90
13389;DHT22;6764;53.250;10.410;2023-05-07T09:27:06;13.10;99.90
13389;DHT22;6764;53.250;10.410;2023-05-07T09:29:32;13.20;99.90
13389;DHT22;6764;53.250;10.410;2023-05-07T09:32:05;13.20;99.90
13389;DHT22;6764;53.250;10.410;2023-05-07T09:34:31;13.10;99.90
13389;DHT22;6764;53.250;10.410;2023-05-07T09:37:00;13.10;99.90
13389;DHT22;6764;53.250;10.410;2023-05-07T09:39:26;13.30;99.90
13389;DHT22;6764;53.250;10.410;2023-05-07T09:41:51;13.30;99.90
13389;DHT22;6764;53.250;10.410;2023-05-07T09:44:20;13.20;99.90
13389;DHT22;6764;53.250;10.410;2023-05-07T09:46:49;13.30;99.90
13389;DHT22;6764;53.250;10.410;2023-05-07T09:49:22;13.40;99.90
13389;DHT22;6764;53.250;10.410;2023-05-07T09:51:50;13.40;99.90
13389;DHT22;6764;53.250;10.410;2023-05-07T09:54:17;13.40;99.90
13389;DHT22;6764;53.250;10.410;2023-05-07T09:56:44;13.40;99.90
13389;DHT22;6764;53.250;10.410;2023-05-07T09:59:14;13.40;99.90
13389;DHT22;6764;53.250;10.410;2023-05-07T10:01:42;13.60;99.90
13389;DHT22;6764;53.250;10.410;2023-05-07T10:04:08;13.60;99.90
13389;DHT22;6764;53.250;10.410;2023-05-07T10:06:35;13.50;99.90
13389;DHT22;6764;53.250;10.410;2023-05-07T10:09:01;13.50;99.90
13389;DHT22;6764;53.250;10.410;2023-05-07T10:11:28;13.60;99.90
13389;DHT22;6764;53.250;10.410;2023-05-07T10:13:53;13.60;99.90
13389;DHT22;6764;53.250;10.410;2023-05-07T10:16:20;13.70;99.90
13389;DHT22;6764;53.250;10.410;2023-05-07T10:18:46;13.80;99.90
13389;DHT22;6764;53.250;10.410;2023-05-07T10:21:18;13.80;99.90
13389;DHT22;6764;53.250;10.410;2023-05-07T10:24:05;13.90;99.90
13389;DHT22;6764;53.250;10.410;2023-05-07T10:26:43;14.00;99.90
13389;DHT22;6764;53.250;10.410;2023-05-07T10:32:33;13.80;99.90
13389;DHT22;6764;53.250;10.410;2023-05-07T10:35:03;13.90;99.90
13389;DHT22;6764;53.250;10.410;2023-05-07T10:37:30;13.90;99.90
13389;DHT22;6764;53.250;10.410;2023-05-07T10:39:56;13.90;99.90
13389;DHT22;6764;53.250;10.410;2023-05-07T10:42:23;14.20;99.90
13389;DHT22;6764;53.250;10.410;2023-05-07T10:44:48;14.30;99.90
13389;DHT22;6764;53.250;10.410;2023-05-07T10:47:16;14.30;99.90
13389;DHT22;6764;53.250;10.410;2023-05-07T10:52:20;14.00;99.90
13389;DHT22;6764;53.250;10.410;2023-05-07T10:54:46;14.00;99.90
13389;DHT22;6764;53.250;10.410;2023-05-07T10:59:56;13.90;99.90
13389;DHT22;6764;53.250;10.410;2023-05-07T11:02:22;14.00;99.90
13389;DHT22;6764;53.250;10.410;2023-05-07T11:05:19;14.20;99.90
13389;DHT22;6764;53.250;10.410;2023-05-07T11:07:54;14.30;99.90
13389;DHT22;6764;53.250;10.410;2023-05-07T11:10:20;14.10;99.90
13389;DHT22;6764;53.250;10.410;2023-05-07T11:12:50;14.10;99.90
13389;DHT22;6764;53.250;10.410;2023-05-07T11:15:34;14.00;99.90
13389;DHT22;6764;53.250;10.410;2023-05-07T11:18:00;14.30;99.90
13389;DHT22;6764;53.250;10.410;2023-05-07T11:26:06;14.80;99.90
13389;DHT22;6764;53.250;10.410;2023-05-07T11:28:37;15.00;99.90
13389;DHT22;6764;53.250;10.410;2023-05-07T11:31:03;15.10;99.90
13389;DHT22;6764;53.250;10.410;2023-05-07T11:33:32;15.40;99.90
13389;DHT22;6764;53.250;10.410;2023-05-07T11:35:59;15.50;99.90
13389;DHT22;6764;53.250;10.410;2023-05-07T11:38:25;15.60;99.90
13389;DHT22;6764;53.250;10.410;2023-05-07T11:40:58;15.70;99.90
13389;DHT22;6764;53.250;10.410;2023-05-07T11:43:26;15.90;99.90
13389;DHT22;6764;53.250;10.410;2023-05-07T11:45:52;16.00;99.90
13389;DHT22;6764;53.250;10.410;2023-05-07T11:48:18;16.10;99.90
13389;DHT22;6764;53.250;10.410;2023-05-07T11:53:33;16.40;99.90
13389;DHT22;6764;53.250;10.410;2023-05-07T11:56:08;16.60;99.90
13389;DHT22;6764;53.250;10.410;2023-05-07T11:58:34;16.50;99.90
13389;DHT22;6764;53.250;10.410;2023-05-07T12:01:00;16.60;99.90
13389;DHT22;6764;53.250;10.410;2023-05-07T12:03:26;16.60;99.90
13389;DHT22;6764;53.250;10.410;2023-05-07T12:05:52;16.40;99.90
13389;DHT22;6764;53.250;10.410;2023-05-07T12:08:18;16.40;99.90
13389;DHT22;6764;53.250;10.410;2023-05-07T12:10:45;16.50;99.90
13389;DHT22;6764;53.250;10.410;2023-05-07T12:13:20;16.40;99.90
13389;DHT22;6764;53.250;10.410;2023-05-07T12:15:46;16.40;99.90
13389;DHT22;6764;53.250;10.410;2023-05-07T12:18:12;16.40;99.90
13389;DHT22;6764;53.250;10.410;2023-05-07T12:20:39;16.40;99.90
13389;DHT22;6764;53.250;10.410;2023-05-07T12:23:05;16.30;99.90
13389;DHT22;6764;53.250;10.410;2023-05-07T12:25:38;16.40;99.90
13389;DHT22;6764;53.250;10.410;2023-05-07T12:28:04;16.40;99.90
13389;DHT22;6764;53.250;10.410;2023-05-07T12:30:40;16.40;99.90
13389;DHT22;6764;53.250;10.410;2023-05-07T12:33:06;16.50;99.90
13389;DHT22;6764;53.250;10.410;2023-05-07T12:35:36;16.40;99.90
13389;DHT22;6764;53.250;10.410;2023-05-07T12:38:02;16.30;99.90
13389;DHT22;6764;53.250;10.410;2023-05-07T12:40:38;16.40;99.90
13389;DHT22;6764;53.250;10.410;2023-05-07T12:43:03;16.60;99.90
13389;DHT22;6764;53.250;10.410;2023-05-07T12:45:29;16.70;99.90
13389;DHT22;6764;53.250;10.410;2023-05-07T12:47:56;16.60;99.90
13389;DHT22;6764;53.250;10.410;2023-05-07T12:50:26;16.60;99.90
13389;DHT22;6764;53.250;10.410;2023-05-07T12:52:56;16.60;99.90
13389;DHT22;6764;53.250;10.410;2023-05-07T12:55:21;17.00;99.90
13389;DHT22;6764;53.250;10.410;2023-05-07T12:57:51;17.10;99.90
13389;DHT22;6764;53.250;10.410;2023-05-07T13:00:18;17.20;99.90
13389;DHT22;6764;53.250;10.410;2023-05-07T13:02:58;17.20;99.90
13389;DHT22;6764;53.250;10.410;2023-05-07T13:05:24;17.10;99.90
13389;DHT22;6764;53.250;10.410;2023-05-07T13:07:56;17.30;99.90
13389;DHT22;6764;53.250;10.410;2023-05-07T13:10:23;17.40;99.90
13389;DHT22;6764;53.250;10.410;2023-05-07T13:12:49;17.50;99.90
13389;DHT22;6764;53.250;10.410;2023-05-07T13:15:15;17.50;99.90
13389;DHT22;6764;53.250;10.410;2023-05-07T13:17:41;17.60;99.90
13389;DHT22;6764;53.250;10.410;2023-05-07T13:20:08;17.60;99.90
13389;DHT22;6764;53.250;10.410;2023-05-07T13:22:34;17.50;99.90
13389;DHT22;6764;53.250;10.410;2023-05-07T13:25:00;17.20;99.90
13389;DHT22;6764;53.250;10.410;2023-05-07T13:27:25;17.40;99.90
13389;DHT22;6764;53.250;10.410;2023-05-07T13:29:51;17.50;99.90
13389;DHT22;6764;53.250;10.410;2023-05-07T13:32:17;17.50;99.90
13389;DHT22;6764;53.250;10.410;2023-05-07T13:34:43;17.60;99.90
13389;DHT22;6764;53.250;10.410;2023-05-07T13:37:08;17.70;99.90
13389;DHT22;6764;53.250;10.410;2023-05-07T13:39:34;17.70;99.90
13389;DHT22;6764;53.250;10.410;2023-05-07T13:41:59;17.80;99.90
13389;DHT22;6764;53.250;10.410;2023-05-07T13:44:25;17.60;99.90
13389;DHT22;6764;53.250;10.410;2023-05-07T13:46:54;17.70;99.90
13389;DHT22;6764;53.250;10.410;2023-05-07T13:49:19;17.90;99.90
13389;DHT22;6764;53.250;10.410;2023-05-07T13:51:45;18.00;99.90
13389;DHT22;6764;53.250;10.410;2023-05-07T13:54:10;18.00;99.90
13389;DHT22;6764;53.250;10.410;2023-05-07T13:56:37;18.00;99.90
13389;DHT22;6764;53.250;10.410;2023-05-07T13:59:02;18.00;99.90
13389;DHT22;6764;53.250;10.410;2023-05-07T14:01:28;18.00;99.90
13389;DHT22;6764;53.250;10.410;2023-05-07T14:03:55;17.80;99.90
13389;DHT22;6764;53.250;10.410;2023-05-07T14:06:20;17.60;99.90
13389;DHT22;6764;53.250;10.410;2023-05-07T14:08:47;17.80;99.90
13389;DHT22;6764;53.250;10.410;2023-05-07T14:11:12;17.70;99.90
13389;DHT22;6764;53.250;10.410;2023-05-07T14:13:38;17.60;99.90
13389;DHT22;6764;53.250;10.410;2023-05-07T14:16:04;17.50;99.90
13389;DHT22;6764;53.250;10.410;2023-05-07T14:18:30;17.70;99.90
13389;DHT22;6764;53.250;10.410;2023-05-07T14:20:55;17.70;99.90
13389;DHT22;6764;53.250;10.410;2023-05-07T14:23:21;17.80;99.90
13389;DHT22;6764;53.250;10.410;2023-05-07T14:25:52;17.90;99.90
13389;DHT22;6764;53.250;10.410;2023-05-07T14:28:18;18.00;99.90
13389;DHT22;6764;53.250;10.410;2023-05-07T14:30:43;18.00;99.90
13389;DHT22;6764;53.250;10.410;2023-05-07T14:33:09;18.10;99.90
13389;DHT22;6764;53.250;10.410;2023-05-07T14:35:34;18.10;99.90
13389;DHT22;6764;53.250;10.410;2023-05-07T14:38:00;18.30;99.90
13389;DHT22;6764;53.250;10.410;2023-05-07T14:40:26;18.40;99.90
13389;DHT22;6764;53.250;10.410;2023-05-07T14:42:51;18.30;99.90
13389;DHT22;6764;53.250;10.410;2023-05-07T14:45:17;18.40;99.90
13389;DHT22;6764;53.250;10.410;2023-05-07T14:47:43;18.40;99.90
13389;DHT22;6764;53.250;10.410;2023-05-07T14:50:08;18.40;99.90
13389;DHT22;6764;53.250;10.410;2023-05-07T14:52:34;18.50;99.90
13389;DHT22;6764;53.250;10.410;2023-05-07T14:55:00;18.60;99.90
13389;DHT22;6764;53.250;10.410;2023-05-07T14:57:25;18.80;99.90
13389;DHT22;6764;53.250;10.410;2023-05-07T14:59:51;18.70;99.90
13389;DHT22;6764;53.250;10.410;2023-05-07T15:02:17;18.70;99.90
13389;DHT22;6764;53.250;10.410;2023-05-07T15:04:43;18.80;99.90
13389;DHT22;6764;53.250;10.410;2023-05-07T15:07:14;18.90;99.90
13389;DHT22;6764;53.250;10.410;2023-05-07T15:09:44;18.80;99.90
13389;DHT22;6764;53.250;10.410;2023-05-07T15:12:10;18.80;99.90
13389;DHT22;6764;53.250;10.410;2023-05-07T15:14:37;18.70;99.90
13389;DHT22;6764;53.250;10.410;2023-05-07T15:17:03;18.60;99.90
13389;DHT22;6764;53.250;10.410;2023-05-07T15:19:29;18.40;99.90
13389;DHT22;6764;53.250;10.410;2023-05-07T15:21:59;18.30;99.90
13389;DHT22;6764;53.250;10.410;2023-05-07T15:24:28;18.10;99.90
13389;DHT22;6764;53.250;10.410;2023-05-07T15:26:54;18.10;99.90
13389;DHT22;6764;53.250;10.410;2023-05-07T15:29:20;18.20;99.90
13389;DHT22;6764;53.250;10.410;2023-05-07T15:31:46;18.20;99.90
13389;DHT22;6764;53.250;10.410;2023-05-07T15:34:11;18.20;99.90
13389;DHT22;6764;53.250;10.410;2023-05-07T15:36:37;18.30;99.90
13389;DHT22;6764;53.250;10.410;2023-05-07T15:39:02;18.20;99.90
13389;DHT22;6764;53.250;10.410;2023-05-07T15:41:29;18.20;99.90
13389;DHT22;6764;53.250;10.410;2023-05-07T15:43:55;18.20;99.90